Time,TemperatureF,DewpointF,PressureIn,WindDirection,WindDirectionDegrees,WindSpeedMPH,WindSpeedGustMPH,Humidity,HourlyPrecipIn,Conditions,Clouds,dailyrainin,SoftwareType,DateUTC
2013-06-02 00:12:00,69.8,69.2,29.90,West,270,0.0,-999.0,98,-99.99,,,0.00,Acu-Link.com,2013-06-02 04:12:00,
2013-06-02 00:28:00,69.8,69.2,29.90,SSE,157,0.0,-999.0,98,-99.99,,,0.00,Acu-Link.com,2013-06-02 04:28:00,
2013-06-02 00:43:00,69.8,69.2,29.89,ESE,112,1.6,-999.0,98,-99.99,,,0.00,Acu-Link.com,2013-06-02 04:43:00,
2013-06-02 00:58:00,69.8,69.2,29.88,East,90,2.7,-999.0,98,-99.99,,,0.00,Acu-Link.com,2013-06-02 04:58:00,
2013-06-02 01:13:00,69.8,66.7,29.85,East,90,6.3,-999.0,90,-99.99,,,0.00,Acu-Link.com,2013-06-02 05:13:00,
2013-06-02 01:29:00,71.6,66.8,29.85,SSW,202,5.6,-999.0,85,-99.99,,,0.00,Acu-Link.com,2013-06-02 05:29:00,
2013-06-02 01:44:00,71.6,66.2,29.86,South,180,3.1,-999.0,83,-99.99,,,0.00,Acu-Link.com,2013-06-02 05:44:00,
2013-06-02 01:59:00,71.6,65.8,29.87,West,270,3.6,-999.0,82,-99.99,,,0.00,Acu-Link.com,2013-06-02 05:59:00,
2013-06-02 02:15:00,71.6,66.2,29.87,South,180,3.1,-999.0,83,-99.99,,,0.00,Acu-Link.com,2013-06-02 06:15:00,
2013-06-02 02:30:00,71.6,66.5,29.87,South,180,3.1,-999.0,84,-99.99,,,0.00,Acu-Link.com,2013-06-02 06:30:00,
2013-06-02 02:45:00,71.6,66.2,29.87,South,180,6.7,-999.0,83,-99.99,,,0.00,Acu-Link.com,2013-06-02 06:45:00,
2013-06-02 03:00:00,71.6,66.2,29.87,West,270,1.1,-999.0,83,-99.99,,,0.00,Acu-Link.com,2013-06-02 07:00:00,
2013-06-02 03:16:00,71.6,66.2,29.87,SW,225,3.6,-999.0,83,-99.99,,,0.00,Acu-Link.com,2013-06-02 07:16:00,
2013-06-02 03:31:00,71.6,66.5,29.87,South,180,2.7,-999.0,84,-99.99,,,0.00,Acu-Link.com,2013-06-02 07:31:00,
2013-06-02 03:46:00,69.8,65.1,29.86,WSW,247,4.0,-999.0,85,-99.99,,,0.00,Acu-Link.com,2013-06-02 07:46:00,
2013-06-02 04:01:00,69.8,65.1,29.87,SSW,202,4.0,-999.0,85,-99.99,,,0.00,Acu-Link.com,2013-06-02 08:01:00,
2013-06-02 04:17:00,69.8,65.1,29.87,SSW,202,4.0,-999.0,85,-99.99,,,0.00,Acu-Link.com,2013-06-02 08:17:00,
2013-06-02 04:32:00,69.8,65.1,29.86,SSW,202,6.7,-999.0,85,-99.99,,,0.00,Acu-Link.com,2013-06-02 08:32:00,
2013-06-02 04:47:00,69.8,65.4,29.86,West,270,2.7,-999.0,86,-99.99,,,0.00,Acu-Link.com,2013-06-02 08:47:00,
2013-06-02 05:02:00,69.8,65.4,29.86,SW,225,5.1,-999.0,86,-99.99,,,0.00,Acu-Link.com,2013-06-02 09:02:00,
2013-06-02 05:17:00,69.8,65.7,29.86,SSW,202,4.7,-999.0,87,-99.99,,,0.00,Acu-Link.com,2013-06-02 09:17:00,
2013-06-02 05:32:00,69.8,66.1,29.85,South,180,1.1,-999.0,88,-99.99,,,0.00,Acu-Link.com,2013-06-02 09:32:00,
2013-06-02 05:47:00,69.8,66.1,29.86,WSW,247,2.0,-999.0,88,-99.99,,,0.00,Acu-Link.com,2013-06-02 09:47:00,
2013-06-02 06:03:00,69.8,66.4,29.86,SSW,202,1.6,-999.0,89,-99.99,,,0.00,Acu-Link.com,2013-06-02 10:03:00,
2013-06-02 06:18:00,69.8,66.4,29.86,WSW,247,0.0,-999.0,89,-99.99,,,0.00,Acu-Link.com,2013-06-02 10:18:00,
2013-06-02 06:33:00,69.8,66.4,29.87,South,180,1.6,-999.0,89,-99.99,,,0.00,Acu-Link.com,2013-06-02 10:33:00,
2013-06-02 06:49:00,69.8,66.1,29.86,SW,225,1.6,-999.0,88,-99.99,,,0.00,Acu-Link.com,2013-06-02 10:49:00,
2013-06-02 07:04:00,69.8,66.1,29.87,West,270,0.0,-999.0,88,-99.99,,,0.00,Acu-Link.com,2013-06-02 11:04:00,
2013-06-02 07:19:00,69.8,66.1,29.87,WSW,247,2.7,-999.0,88,-99.99,,,0.00,Acu-Link.com,2013-06-02 11:19:00,
2013-06-02 07:34:00,69.8,66.1,29.87,SSW,202,2.7,-999.0,88,-99.99,,,0.00,Acu-Link.com,2013-06-02 11:34:00,
2013-06-02 07:50:00,69.8,66.4,29.86,SSW,202,2.0,-999.0,89,-99.99,,,0.00,Acu-Link.com,2013-06-02 11:50:00,
2013-06-02 08:05:00,71.6,68.2,29.86,SW,225,2.7,-999.0,89,-99.99,,,0.00,Acu-Link.com,2013-06-02 12:05:00,
2013-06-02 08:20:00,71.6,67.9,29.86,WSW,247,3.6,-999.0,88,-99.99,,,0.00,Acu-Link.com,2013-06-02 12:20:00,
2013-06-02 08:36:00,71.6,67.5,29.85,South,180,2.0,-999.0,87,-99.99,,,0.00,Acu-Link.com,2013-06-02 12:36:00,
2013-06-02 08:51:00,71.6,67.9,29.85,South,180,2.0,-999.0,88,-99.99,,,0.00,Acu-Link.com,2013-06-02 12:51:00,
2013-06-02 09:06:00,71.6,67.9,29.85,West,270,3.1,-999.0,88,-99.99,,,0.00,Acu-Link.com,2013-06-02 13:06:00,
2013-06-02 09:22:00,71.6,67.5,29.85,SSE,157,3.1,-999.0,87,-99.99,,,0.00,Acu-Link.com,2013-06-02 13:22:00,
2013-06-02 09:37:00,71.6,67.9,29.85,South,180,1.1,-999.0,88,-99.99,,,0.00,Acu-Link.com,2013-06-02 13:37:00,
2013-06-02 09:52:00,71.6,67.9,29.84,SW,225,2.7,-999.0,88,-99.99,,,0.00,Acu-Link.com,2013-06-02 13:52:00,
2013-06-02 10:07:00,71.6,67.5,29.85,West,270,4.7,-999.0,87,-99.99,,,0.00,Acu-Link.com,2013-06-02 14:07:00,
2013-06-02 10:22:00,71.6,67.5,29.85,West,270,4.7,-999.0,87,-99.99,,,0.00,Acu-Link.com,2013-06-02 14:22:00,
2013-06-02 10:38:00,71.6,67.5,29.84,West,270,4.7,-999.0,87,-99.99,,,0.00,Acu-Link.com,2013-06-02 14:38:00,
2013-06-02 10:53:00,71.6,67.5,29.85,West,270,4.7,-999.0,87,-99.99,,,0.00,Acu-Link.com,2013-06-02 14:53:00,
2013-06-02 12:09:00,71.6,71.0,29.85,WSW,247,1.6,-999.0,98,-99.99,,,0.28,Acu-Link.com,2013-06-02 16:09:00,
2013-06-02 12:25:00,71.6,71.0,29.84,West,270,0.0,-999.0,98,-99.99,,,0.28,Acu-Link.com,2013-06-02 16:25:00,
2013-06-02 12:40:00,71.6,70.4,29.85,West,270,0.0,-999.0,96,-99.99,,,0.28,Acu-Link.com,2013-06-02 16:40:00,
2013-06-02 12:55:00,71.6,70.4,29.84,ESE,112,3.1,-999.0,96,-99.99,,,0.28,Acu-Link.com,2013-06-02 16:55:00,
2013-06-02 13:10:00,73.4,70.6,29.83,ENE,67,1.6,-999.0,91,-99.99,,,0.28,Acu-Link.com,2013-06-02 17:10:00,
2013-06-02 13:26:00,73.4,70.0,29.83,ESE,112,2.7,-999.0,89,-99.99,,,0.28,Acu-Link.com,2013-06-02 17:26:00,
2013-06-02 13:41:00,77.0,71.8,29.82,NNE,22,0.0,-999.0,84,-99.99,,,0.28,Acu-Link.com,2013-06-02 17:41:00,
2013-06-02 13:56:00,75.2,71.1,29.81,NNE,22,2.7,-999.0,87,-99.99,,,0.28,Acu-Link.com,2013-06-02 17:56:00,
2013-06-02 14:12:00,78.8,73.2,29.81,East,90,2.7,-999.0,83,-99.99,,,0.28,Acu-Link.com,2013-06-02 18:12:00,
2013-06-02 14:27:00,78.8,72.5,29.80,South,180,5.1,-999.0,81,-99.99,,,0.28,Acu-Link.com,2013-06-02 18:27:00,
2013-06-02 14:42:00,77.0,71.4,29.80,ESE,112,2.0,-999.0,83,-99.99,,,0.28,Acu-Link.com,2013-06-02 18:42:00,
2013-06-02 14:58:00,78.8,71.0,29.79,ENE,67,2.0,-999.0,77,-99.99,,,0.28,Acu-Link.com,2013-06-02 18:58:00,
2013-06-02 15:13:00,77.0,71.4,29.78,NE,45,2.0,-999.0,83,-99.99,,,0.28,Acu-Link.com,2013-06-02 19:13:00,
2013-06-02 15:28:00,77.0,71.8,29.77,East,90,3.6,-999.0,84,-99.99,,,0.28,Acu-Link.com,2013-06-02 19:28:00,
2013-06-02 15:43:00,71.6,71.0,29.77,SE,135,6.7,-999.0,98,-99.99,,,0.32,Acu-Link.com,2013-06-02 19:43:00,
2013-06-02 15:59:00,71.6,71.0,29.78,ESE,112,4.0,-999.0,98,-99.99,,,0.67,Acu-Link.com,2013-06-02 19:59:00,
2013-06-02 16:14:00,71.6,71.0,29.77,ESE,112,4.0,-999.0,98,-99.99,,,0.84,Acu-Link.com,2013-06-02 20:14:00,
2013-06-02 16:29:00,71.6,71.0,29.77,ESE,112,4.0,-999.0,98,-99.99,,,0.84,Acu-Link.com,2013-06-02 20:29:00,
2013-06-02 16:45:00,71.6,71.0,29.80,ESE,112,4.0,-999.0,98,-99.99,,,0.84,Acu-Link.com,2013-06-02 20:45:00,
2013-06-02 18:16:00,69.8,69.2,29.78,SSW,202,2.0,-999.0,98,-99.99,,,3.06,Acu-Link.com,2013-06-02 22:16:00,
2013-06-02 18:31:00,69.8,69.2,29.77,SSW,202,2.0,-999.0,98,-99.99,,,3.06,Acu-Link.com,2013-06-02 22:31:00,
2013-06-02 18:46:00,69.8,69.2,29.77,SSW,202,2.0,-999.0,98,-99.99,,,3.06,Acu-Link.com,2013-06-02 22:46:00,
2013-06-02 19:02:00,69.8,69.2,29.78,SSW,202,2.0,-999.0,98,-99.99,,,3.06,Acu-Link.com,2013-06-02 23:02:00,
2013-06-02 19:17:00,68.0,67.4,29.77,East,90,0.0,-999.0,98,-99.99,,,3.19,Acu-Link.com,2013-06-02 23:17:00,
2013-06-02 19:32:00,68.0,67.4,29.77,East,90,3.1,-999.0,98,-99.99,,,3.20,Acu-Link.com,2013-06-02 23:32:00,
2013-06-02 19:48:00,68.0,67.4,29.76,NNW,337,0.0,-999.0,98,-99.99,,,3.23,Acu-Link.com,2013-06-02 23:48:00,
2013-06-02 20:03:00,68.0,67.4,29.77,WSW,247,0.0,-999.0,98,-99.99,,,3.23,Acu-Link.com,2013-06-03 00:03:00,
2013-06-02 20:18:00,68.0,67.4,29.77,WSW,247,0.0,-999.0,98,-99.99,,,3.23,Acu-Link.com,2013-06-03 00:18:00,
2013-06-02 20:33:00,68.0,67.4,29.77,NNE,22,0.0,-999.0,98,-99.99,,,3.23,Acu-Link.com,2013-06-03 00:33:00,
2013-06-02 20:49:00,68.0,67.4,29.76,ENE,67,1.6,-999.0,98,-99.99,,,3.23,Acu-Link.com,2013-06-03 00:49:00,
2013-06-02 21:04:00,68.0,67.4,29.77,South,180,0.0,-999.0,98,-99.99,,,3.23,Acu-Link.com,2013-06-03 01:04:00,
2013-06-02 21:19:00,68.0,67.4,29.76,SSE,157,2.7,-999.0,98,-99.99,,,3.23,Acu-Link.com,2013-06-03 01:19:00,
2013-06-02 21:34:00,68.0,67.4,29.77,SW,225,1.1,-999.0,98,-99.99,,,3.23,Acu-Link.com,2013-06-03 01:34:00,
2013-06-02 21:50:00,68.0,67.4,29.77,South,180,1.6,-999.0,98,-99.99,,,3.23,Acu-Link.com,2013-06-03 01:50:00,
2013-06-02 22:05:00,68.0,67.4,29.77,South,180,0.0,-999.0,98,-99.99,,,3.23,Acu-Link.com,2013-06-03 02:05:00,
2013-06-02 22:20:00,66.2,65.6,29.77,SSW,202,0.0,-999.0,98,-99.99,,,3.23,Acu-Link.com,2013-06-03 02:20:00,
2013-06-02 22:36:00,66.2,65.6,29.78,SW,225,0.0,-999.0,98,-99.99,,,3.23,Acu-Link.com,2013-06-03 02:36:00,
2013-06-02 23:06:00,66.2,65.6,29.77,WSW,247,0.0,-999.0,98,-99.99,,,3.23,Acu-Link.com,2013-06-03 03:06:00,
2013-06-02 23:21:00,66.2,65.6,29.77,SW,225,0.0,-999.0,98,-99.99,,,3.23,Acu-Link.com,2013-06-03 03:21:00,
2013-06-02 23:37:00,64.4,63.8,29.76,WNW,292,0.0,-999.0,98,-99.99,,,3.23,Acu-Link.com,2013-06-03 03:37:00,
2013-06-02 23:52:00,64.4,63.8,29.76,NNE,22,0.0,-999.0,98,-99.99,,,3.23,Acu-Link.com,2013-06-03 03:52:00,